Time;durP1;ratioP1;P1;durP2;ratioP2;P2;SDS_P1;SDS_P2;PMS_P1;PMS_P2;Temp;Humidity;BMP_temperature;BMP_pressure;BME280_temperature;BME280_humidity;BME280_pressure;Samples;Min_cycle;Max_cycle;Signal;HPM_P1;HPM_P2
2024/04/03 00:00:02;;;;;;;28.30;9.82;;;;;;;;;;5114200;28;20043;-60
2024/04/03 00:02:30;;;;;;;18.83;9.87;;;;;;;;;;5135814;28;20075;-60
2024/04/03 00:04:56;;;;;;;24.30;11.80;;;;;;;;;;5138615;28;20268;-60
2024/04/03 00:07:21;;;;;;;24.17;10.55;;;;;;;;;;5138706;28;20055;-60
2024/04/03 00:09:47;;;;;;;26.80;10.17;;;;;;;;;;5134813;28;20065;-59
2024/04/03 00:12:12;;;;;;;27.63;12.10;;;;;;;;;;5134842;28;20048;-60
2024/04/03 00:14:38;;;;;;;23.67;11.93;;;;;;;;;;5137647;28;20042;-61
2024/04/03 00:17:03;;;;;;;23.37;12.00;;;;;;;;;;5135034;28;20027;-61
2024/04/03 00:19:29;;;;;;;22.50;12.45;;;;;;;;;;5136897;28;20028;-61
2024/04/03 00:21:54;;;;;;;33.13;11.77;;;;;;;;;;5138410;28;20028;-62
2024/04/03 00:24:19;;;;;;;19.93;11.47;;;;;;;;;;5132844;28;20030;-60
2024/04/03 00:26:44;;;;;;;23.30;11.53;;;;;;;;;;5136911;28;20043;-60
2024/04/03 00:29:10;;;;;;;26.50;13.10;;;;;;;;;;5138078;28;20030;-60
2024/04/03 00:31:36;;;;;;;29.13;13.20;;;;;;;;;;5134495;28;20027;-59
2024/04/03 00:34:02;;;;;;;29.48;13.60;;;;;;;;;;5133820;28;20036;-60
2024/04/03 00:36:27;;;;;;;25.93;13.53;;;;;;;;;;5138187;28;20166;-59
2024/04/03 00:38:54;;;;;;;25.27;13.63;;;;;;;;;;5138016;28;20480;-60
2024/04/03 00:41:19;;;;;;;29.77;13.93;;;;;;;;;;5136551;28;20039;-60
2024/04/03 00:43:44;;;;;;;29.87;12.87;;;;;;;;;;5135120;28;20042;-61
2024/04/03 00:46:10;;;;;;;30.92;10.98;;;;;;;;;;5134411;28;20314;-61
2024/04/03 00:48:36;;;;;;;25.17;11.68;;;;;;;;;;5137972;28;20069;-60
2024/04/03 00:51:02;;;;;;;21.10;11.45;;;;;;;;;;5131599;28;20024;-60
2024/04/03 00:53:28;;;;;;;26.77;13.15;;;;;;;;;;5137877;28;20028;-60
2024/04/03 00:55:53;;;;;;;32.53;15.23;;;;;;;;;;5137898;28;20036;-59
2024/04/03 00:58:19;;;;;;;30.65;14.13;;;;;;;;;;5137849;28;20032;-59
2024/04/03 01:00:44;;;;;;;20.27;11.90;;;;;;;;;;5132283;28;20079;-60
2024/04/03 01:03:10;;;;;;;21.67;11.60;;;;;;;;;;5123446;28;20028;-59
2024/04/03 01:05:37;;;;;;;22.10;11.10;;;;;;;;;;5135108;28;20067;-60
2024/04/03 01:08:03;;;;;;;22.40;9.98;;;;;;;;;;5137797;28;20758;-61
2024/04/03 01:10:28;;;;;;;24.20;9.70;;;;;;;;;;5136953;28;20036;-60
2024/04/03 01:12:54;;;;;;;20.07;9.37;;;;;;;;;;5134514;28;20265;-60
2024/04/03 01:15:22;;;;;;;19.85;9.35;;;;;;;;;;5135770;28;20120;-59
2024/04/03 01:17:48;;;;;;;21.37;9.97;;;;;;;;;;5125770;28;20039;-61
2024/04/03 01:20:13;;;;;;;18.67;10.47;;;;;;;;;;5136239;28;20264;-61
2024/04/03 01:22:38;;;;;;;24.80;10.97;;;;;;;;;;5131161;28;20031;-61
2024/04/03 01:25:04;;;;;;;19.73;10.20;;;;;;;;;;5134739;28;20267;-61
2024/04/03 01:27:30;;;;;;;20.17;10.50;;;;;;;;;;5136988;28;20032;-59
2024/04/03 01:29:56;;;;;;;23.13;10.27;;;;;;;;;;5133171;28;20054;-61
2024/04/03 01:32:23;;;;;;;19.05;7.40;;;;;;;;;;5127945;28;20088;-60
2024/04/03 01:34:49;;;;;;;16.43;7.03;;;;;;;;;;5136666;28;20031;-60
2024/04/03 01:37:17;;;;;;;14.00;6.45;;;;;;;;;;5129701;28;20282;-60
2024/04/03 01:39:42;;;;;;;17.57;8.17;;;;;;;;;;5136774;28;20023;-60
2024/04/03 01:42:08;;;;;;;18.10;6.97;;;;;;;;;;5125309;28;20267;-60
2024/04/03 01:44:33;;;;;;;18.17;7.50;;;;;;;;;;5125782;28;20039;-59
2024/04/03 01:46:59;;;;;;;19.98;7.85;;;;;;;;;;5132001;28;20066;-59
2024/04/03 01:49:25;;;;;;;13.77;6.78;;;;;;;;;;5136717;28;20103;-59
2024/04/03 01:51:50;;;;;;;17.60;7.20;;;;;;;;;;5122853;28;20028;-60
2024/04/03 01:54:16;;;;;;;19.83;6.63;;;;;;;;;;5123823;28;20028;-60
2024/04/03 01:56:41;;;;;;;15.03;5.77;;;;;;;;;;5132797;28;20046;-60
2024/04/03 01:59:07;;;;;;;18.30;6.65;;;;;;;;;;5136421;28;20118;-61
2024/04/03 02:01:32;;;;;;;9.90;5.97;;;;;;;;;;5129623;28;20099;-60
2024/04/03 02:03:58;;;;;;;15.75;6.25;;;;;;;;;;5129600;28;20265;-60
2024/04/03 02:06:23;;;;;;;21.00;5.93;;;;;;;;;;5136432;28;20035;-61
2024/04/03 02:08:49;;;;;;;20.83;6.43;;;;;;;;;;5136445;28;20286;-61
2024/04/03 02:11:16;;;;;;;12.73;4.90;;;;;;;;;;5127180;28;20096;-60
2024/04/03 02:13:42;;;;;;;10.97;4.53;;;;;;;;;;5122456;28;20066;-60
2024/04/03 02:16:07;;;;;;;12.90;4.80;;;;;;;;;;5135143;28;20340;-60
2024/04/03 02:18:32;;;;;;;17.23;5.70;;;;;;;;;;5134799;28;20032;-60
2024/04/03 02:20:58;;;;;;;15.48;6.22;;;;;;;;;;5135686;28;20271;-61
2024/04/03 02:23:23;;;;;;;11.68;5.90;;;;;;;;;;5133403;28;20032;-65
2024/04/03 02:25:49;;;;;;;16.23;7.10;;;;;;;;;;5136236;28;20019;-60
2024/04/03 02:28:14;;;;;;;18.73;5.63;;;;;;;;;;5134310;28;20423;-60
2024/04/03 02:30:40;;;;;;;12.10;5.88;;;;;;;;;;5134477;28;20043;-59
2024/04/03 02:33:06;;;;;;;11.85;5.15;;;;;;;;;;5127435;28;20032;-59
2024/04/03 02:35:31;;;;;;;20.88;5.70;;;;;;;;;;5123967;28;20044;-59
2024/04/03 02:37:56;;;;;;;18.45;5.32;;;;;;;;;;5131705;28;20035;-60
2024/04/03 02:40:22;;;;;;;17.63;6.07;;;;;;;;;;5132278;28;20020;-59
2024/04/03 02:42:47;;;;;;;25.27;5.67;;;;;;;;;;5123489;28;20264;-59
2024/04/03 02:45:13;;;;;;;17.77;5.17;;;;;;;;;;5135750;28;20035;-59
2024/04/03 02:47:38;;;;;;;17.33;5.40;;;;;;;;;;5133450;28;20034;-60
2024/04/03 02:50:04;;;;;;;12.77;5.53;;;;;;;;;;5135787;28;20039;-60
2024/04/03 02:52:29;;;;;;;10.53;4.97;;;;;;;;;;5104535;28;20054;-61
2024/04/03 02:54:55;;;;;;;15.65;5.32;;;;;;;;;;5122886;28;20042;-60
2024/04/03 02:57:21;;;;;;;18.95;5.13;;;;;;;;;;5135488;28;20035;-60
2024/04/03 02:59:46;;;;;;;9.52;5.45;;;;;;;;;;5135431;28;20030;-60
2024/04/03 03:02:12;;;;;;;16.38;6.07;;;;;;;;;;5130976;28;20068;-59
2024/04/03 03:04:41;;;;;;;13.03;5.17;;;;;;;;;;5130317;28;20031;-60
2024/04/03 03:07:08;;;;;;;19.60;4.70;;;;;;;;;;5135163;28;20328;-61
2024/04/03 03:09:34;;;;;;;17.17;4.60;;;;;;;;;;5135540;28;20252;-60
2024/04/03 03:11:59;;;;;;;12.88;4.60;;;;;;;;;;5126502;28;20091;-60
2024/04/03 03:14:25;;;;;;;16.30;4.32;;;;;;;;;;5135033;28;20087;-60
2024/04/03 03:16:50;;;;;;;19.40;5.55;;;;;;;;;;5126092;28;20032;-60
2024/04/03 03:19:16;;;;;;;18.07;4.80;;;;;;;;;;5135541;28;20023;-60
2024/04/03 03:21:41;;;;;;;13.40;4.43;;;;;;;;;;5122688;28;20260;-59
2024/04/03 03:24:07;;;;;;;14.30;4.40;;;;;;;;;;5130644;28;20506;-61
2024/04/03 03:26:32;;;;;;;29.40;6.47;;;;;;;;;;5135245;28;20032;-60
2024/04/03 03:28:58;;;;;;;13.18;5.22;;;;;;;;;;5135169;28;20262;-60
2024/04/03 03:31:23;;;;;;;22.13;5.15;;;;;;;;;;5125523;28;20051;-61
2024/04/03 03:33:49;;;;;;;21.07;5.17;;;;;;;;;;5126848;28;20027;-60
2024/04/03 03:36:14;;;;;;;19.02;4.75;;;;;;;;;;5134831;28;20083;-60
2024/04/03 03:38:40;;;;;;;15.50;5.43;;;;;;;;;;5117349;28;20065;-60
2024/04/03 03:41:06;;;;;;;15.40;5.72;;;;;;;;;;5113026;28;20084;-60
2024/04/03 03:43:31;;;;;;;17.83;5.47;;;;;;;;;;5128691;28;20035;-60
2024/04/03 03:45:57;;;;;;;16.27;6.25;;;;;;;;;;5120549;28;20036;-61
2024/04/03 03:52:36;;;;;;;20.27;6.82;;;;;;;;;;5124017;28;20043;-59
2024/04/03 03:53:56;;;;;;;13.10;5.70;;;;;;;;;;5131500;28;20256;-62
2024/04/03 03:56:21;;;;;;;15.33;7.10;;;;;;;;;;5131148;28;20304;-60
2024/04/03 03:58:46;;;;;;;14.30;5.03;;;;;;;;;;5127219;28;20055;-60
2024/04/03 04:01:12;;;;;;;13.93;5.05;;;;;;;;;;5134365;28;20024;-60
2024/04/03 04:03:38;;;;;;;13.50;5.85;;;;;;;;;;5127624;28;20028;-60
2024/04/03 04:06:04;;;;;;;21.38;6.55;;;;;;;;;;5132637;28;20038;-60
2024/04/03 04:08:29;;;;;;;24.25;5.65;;;;;;;;;;5115036;28;20036;-59
2024/04/03 04:10:56;;;;;;;15.33;5.50;;;;;;;;;;5134342;28;20028;-60
2024/04/03 04:13:21;;;;;;;;;;;;;;;;;;5128573;28;20038;-61
2024/04/03 04:15:46;;;;;;;20.83;5.30;;;;;;;;;;5135601;28;19911;-60
2024/04/03 04:18:14;;;;;;;19.98;5.50;;;;;;;;;;5125204;28;20023;-60
2024/04/03 04:20:43;;;;;;;26.27;5.60;;;;;;;;;;5138557;28;20053;-61
2024/04/03 04:23:09;;;;;;;16.97;5.57;;;;;;;;;;5138172;28;20278;-60
2024/04/03 04:25:35;;;;;;;15.33;5.33;;;;;;;;;;5138485;28;20268;-59
2024/04/03 04:28:00;;;;;;;20.30;4.90;;;;;;;;;;5138084;28;20035;-59
2024/04/03 04:30:27;;;;;;;17.17;4.73;;;;;;;;;;5138169;28;20035;-60
2024/04/03 04:32:52;;;;;;;16.38;5.05;;;;;;;;;;5131981;28;20283;-60
2024/04/03 04:35:18;;;;;;;16.08;4.93;;;;;;;;;;5138135;28;20039;-60
2024/04/03 04:37:43;;;;;;;23.40;4.93;;;;;;;;;;5120534;28;20032;-60
2024/04/03 04:40:10;;;;;;;9.52;5.03;;;;;;;;;;5138484;28;20027;-60
2024/04/03 04:42:36;;;;;;;18.33;4.60;;;;;;;;;;5131330;28;20032;-60
2024/04/03 04:45:02;;;;;;;13.85;4.72;;;;;;;;;;5120626;28;20256;-59
2024/04/03 04:47:28;;;;;;;12.70;4.82;;;;;;;;;;5132932;28;20031;-60
2024/04/03 04:49:54;;;;;;;16.15;5.03;;;;;;;;;;5138073;28;20038;-60
2024/04/03 04:52:19;;;;;;;12.25;3.80;;;;;;;;;;5137575;28;20028;-59
2024/04/03 04:54:44;;;;;;;30.97;4.83;;;;;;;;;;5118995;28;20032;-59
2024/04/03 04:57:14;;;;;;;10.27;3.90;;;;;;;;;;5138040;28;20036;-59
2024/04/03 04:59:40;;;;;;;14.33;4.20;;;;;;;;;;5131187;28;20024;-60
2024/04/03 05:02:05;;;;;;;13.10;4.50;;;;;;;;;;5126761;28;20329;-59
2024/04/03 05:04:31;;;;;;;16.80;4.17;;;;;;;;;;5124665;28;20264;-60
2024/04/03 05:06:58;;;;;;;13.80;4.10;;;;;;;;;;5130684;28;20293;-60
2024/04/03 05:09:23;;;;;;;16.37;5.03;;;;;;;;;;5137621;28;20278;-60
2024/04/03 05:11:51;;;;;;;19.87;4.50;;;;;;;;;;5136691;28;20264;-61
2024/04/03 05:14:17;;;;;;;22.83;4.77;;;;;;;;;;5117077;28;20034;-59
2024/04/03 05:16:42;;;;;;;15.20;4.67;;;;;;;;;;5130836;28;20292;-59
2024/04/03 05:19:08;;;;;;;13.13;4.78;;;;;;;;;;5124524;28;20033;-60
2024/04/03 05:21:35;;;;;;;17.40;4.78;;;;;;;;;;5131879;28;20039;-61
2024/04/03 05:24:01;;;;;;;19.00;5.30;;;;;;;;;;5129904;28;20028;-59
2024/04/03 05:26:26;;;;;;;15.73;5.33;;;;;;;;;;5131489;28;20327;-60
2024/04/03 05:28:52;;;;;;;21.00;4.88;;;;;;;;;;5136583;28;20032;-60
2024/04/03 05:31:18;;;;;;;20.10;5.22;;;;;;;;;;5134936;28;20081;-60
2024/04/03 05:33:43;;;;;;;12.38;4.90;;;;;;;;;;5113048;28;20040;-61
2024/04/03 05:36:10;;;;;;;24.80;5.70;;;;;;;;;;5136756;28;20057;-60
2024/04/03 05:38:36;;;;;;;19.45;4.75;;;;;;;;;;5126908;28;20027;-60
2024/04/03 05:41:02;;;;;;;22.88;5.57;;;;;;;;;;5118984;28;20038;-60
2024/04/03 05:43:27;;;;;;;23.50;5.50;;;;;;;;;;5136013;28;20039;-59
2024/04/03 05:45:53;;;;;;;18.33;4.37;;;;;;;;;;5131205;28;20472;-59
2024/04/03 05:48:19;;;;;;;13.07;4.43;;;;;;;;;;5132152;28;20028;-59
2024/04/03 05:50:45;;;;;;;14.77;5.87;;;;;;;;;;5136900;28;20031;-59
2024/04/03 05:53:10;;;;;;;15.43;5.50;;;;;;;;;;5115525;28;20297;-60
2024/04/03 05:55:36;;;;;;;17.25;4.88;;;;;;;;;;5136132;28;20035;-59
2024/04/03 05:58:02;;;;;;;15.80;5.07;;;;;;;;;;5131100;28;20032;-60
2024/04/03 06:00:28;;;;;;;;;;;;;;;;;;5116262;28;20051;-60
2024/04/03 06:02:53;;;;;;;11.90;4.70;;;;;;;;;;5136039;28;19919;-60
2024/04/03 06:05:18;;;;;;;24.83;6.07;;;;;;;;;;5111390;28;20523;-59
2024/04/03 06:07:45;;;;;;;16.63;5.60;;;;;;;;;;5134653;28;20019;-60
2024/04/03 06:10:12;;;;;;;16.73;4.80;;;;;;;;;;5135296;28;20023;-60
2024/04/03 06:12:39;;;;;;;14.00;4.83;;;;;;;;;;5133651;28;20280;-60
2024/04/03 06:15:04;;;;;;;14.98;5.13;;;;;;;;;;5135573;28;20307;-59
2024/04/03 06:17:29;;;;;;;17.07;4.73;;;;;;;;;;5110538;28;20016;-60
2024/04/03 06:19:55;;;;;;;21.90;5.75;;;;;;;;;;5135935;28;20055;-59
2024/04/03 06:22:20;;;;;;;20.60;4.93;;;;;;;;;;5131498;28;20028;-60
2024/04/03 06:24:46;;;;;;;14.50;4.60;;;;;;;;;;5129162;28;20042;-60
2024/04/03 06:27:11;;;;;;;11.40;4.63;;;;;;;;;;5127180;28;20055;-59
2024/04/03 06:29:37;;;;;;;8.77;4.37;;;;;;;;;;5135448;28;20256;-60
2024/04/03 06:32:03;;;;;;;15.27;3.97;;;;;;;;;;5128734;28;20280;-60
2024/04/03 06:34:29;;;;;;;12.70;4.50;;;;;;;;;;5131479;28;20336;-61
2024/04/03 06:36:54;;;;;;;22.27;5.87;;;;;;;;;;5130859;28;20264;-60
2024/04/03 06:39:20;;;;;;;18.02;4.35;;;;;;;;;;5135532;28;20039;-60
2024/04/03 06:41:46;;;;;;;11.57;4.22;;;;;;;;;;5135291;28;20062;-60
2024/04/03 06:44:11;;;;;;;11.57;4.03;;;;;;;;;;5130151;28;20023;-61
2024/04/03 06:46:37;;;;;;;13.52;4.00;;;;;;;;;;5126895;28;20117;-60
2024/04/03 06:49:02;;;;;;;20.98;4.30;;;;;;;;;;5132994;28;20090;-60
2024/04/03 06:51:28;;;;;;;6.70;3.60;;;;;;;;;;5114358;28;20038;-60
2024/04/03 06:53:53;;;;;;;18.20;5.33;;;;;;;;;;5127355;28;20531;-59
2024/04/03 06:56:19;;;;;;;18.05;4.90;;;;;;;;;;5131310;28;20027;-60
2024/04/03 06:58:44;;;;;;;12.77;4.40;;;;;;;;;;5132299;28;20032;-60
2024/04/03 07:01:13;;;;;;;17.43;4.53;;;;;;;;;;5134655;28;20268;-60
2024/04/03 07:03:39;;;;;;;13.33;4.30;;;;;;;;;;5129203;28;20023;-59
2024/04/03 07:06:05;;;;;;;20.42;4.75;;;;;;;;;;5130529;28;20256;-60
2024/04/03 07:08:32;;;;;;;9.80;3.88;;;;;;;;;;5124456;28;20043;-60
2024/04/03 07:10:58;;;;;;;13.43;4.67;;;;;;;;;;5132035;28;20035;-60
2024/04/03 07:13:23;;;;;;;17.37;4.63;;;;;;;;;;5132582;28;20268;-62
2024/04/03 07:15:49;;;;;;;10.90;4.03;;;;;;;;;;5129157;28;20032;-59
2024/04/03 07:18:15;;;;;;;14.15;3.88;;;;;;;;;;5126022;28;20039;-60
2024/04/03 07:20:41;;;;;;;14.52;4.28;;;;;;;;;;5135111;28;20077;-61
2024/04/03 07:23:07;;;;;;;18.00;5.18;;;;;;;;;;5122524;28;20025;-59
2024/04/03 07:25:32;;;;;;;13.40;4.23;;;;;;;;;;5126354;28;20081;-60
2024/04/03 07:28:07;;;;;;;12.70;4.22;;;;;;;;;;5117151;28;20020;-60
2024/04/03 07:30:33;;;;;;;10.73;4.67;;;;;;;;;;5135238;28;20031;-60
2024/04/03 07:32:58;;;;;;;10.73;4.37;;;;;;;;;;5132609;28;20283;-60
2024/04/03 07:35:24;;;;;;;13.73;5.10;;;;;;;;;;5130792;28;20044;-60
2024/04/03 07:37:49;;;;;;;13.30;4.67;;;;;;;;;;5125708;28;20054;-59
2024/04/03 07:40:15;;;;;;;13.47;4.20;;;;;;;;;;5123009;28;20039;-59
2024/04/03 07:42:41;;;;;;;10.27;4.95;;;;;;;;;;5110586;28;20101;-60
2024/04/03 07:45:07;;;;;;;;;;;;;;;;;;5121458;28;20035;-60
2024/04/03 07:47:33;;;;;;;12.43;4.40;;;;;;;;;;5128820;28;19908;-60
2024/04/03 07:50:05;;;;;;;14.98;4.63;;;;;;;;;;5135041;28;20027;-59
2024/04/03 07:52:31;;;;;;;15.07;3.83;;;;;;;;;;5121079;28;20068;-59
2024/04/03 07:54:56;;;;;;;10.65;4.35;;;;;;;;;;5138495;28;20271;-60
2024/04/03 07:57:21;;;;;;;10.70;4.50;;;;;;;;;;5137847;28;20028;-60
2024/04/03 07:59:48;;;;;;;15.70;4.53;;;;;;;;;;5138896;28;20099;-59
2024/04/03 08:02:14;;;;;;;13.30;4.33;;;;;;;;;;5137369;28;20260;-60
2024/04/03 08:04:39;;;;;;;10.60;4.30;;;;;;;;;;5138573;28;20307;-60
2024/04/03 08:07:05;;;;;;;15.30;4.40;;;;;;;;;;5138536;28;20264;-60
2024/04/03 08:09:31;;;;;;;21.38;3.92;;;;;;;;;;5113213;28;20106;-60
2024/04/03 08:11:57;;;;;;;11.70;3.80;;;;;;;;;;5137376;28;20036;-59
2024/04/03 08:14:22;;;;;;;11.18;3.67;;;;;;;;;;5127308;28;20039;-59
2024/04/03 08:16:48;;;;;;;12.77;3.90;;;;;;;;;;5136240;28;20018;-61
2024/04/03 08:19:13;;;;;;;13.70;5.30;;;;;;;;;;5134780;28;20028;-60
2024/04/03 08:21:38;;;;;;;13.80;3.53;;;;;;;;;;5138420;28;20059;-60
2024/04/03 08:24:05;;;;;;;15.77;4.18;;;;;;;;;;5119185;28;20271;-60
2024/04/03 08:26:30;;;;;;;12.68;4.43;;;;;;;;;;5135917;28;20035;-60
2024/04/03 08:28:56;;;;;;;12.80;4.63;;;;;;;;;;5138076;28;20088;-59
2024/04/03 08:31:21;;;;;;;13.27;3.73;;;;;;;;;;5138335;28;20320;-60
2024/04/03 08:33:47;;;;;;;9.00;4.03;;;;;;;;;;5135882;28;20024;-60
2024/04/03 08:36:14;;;;;;;16.33;4.47;;;;;;;;;;5125876;28;20031;-59
2024/04/03 08:38:40;;;;;;;13.33;4.27;;;;;;;;;;5137899;28;20248;-60
2024/04/03 08:41:05;;;;;;;16.53;4.60;;;;;;;;;;5138021;28;20264;-59
2024/04/03 08:43:31;;;;;;;13.77;4.93;;;;;;;;;;5127884;28;20030;-60
2024/04/03 08:45:57;;;;;;;15.40;4.25;;;;;;;;;;5134764;28;20083;-59
2024/04/03 08:48:25;;;;;;;14.55;4.20;;;;;;;;;;5137945;28;20032;-59
2024/04/03 08:50:54;;;;;;;12.90;5.43;;;;;;;;;;5137615;28;20057;-60
2024/04/03 08:53:23;;;;;;;12.03;4.07;;;;;;;;;;5137294;28;20312;-59
2024/04/03 08:55:52;;;;;;;15.03;4.93;;;;;;;;;;5135683;28;20664;-60
2024/04/03 08:58:19;;;;;;;11.43;4.07;;;;;;;;;;5132141;28;20273;-61
2024/04/03 09:00:44;;;;;;;10.15;4.30;;;;;;;;;;5128564;28;20316;-62
2024/04/03 09:03:11;;;;;;;16.77;5.60;;;;;;;;;;5125541;28;20024;-61
2024/04/03 09:05:36;;;;;;;15.03;4.63;;;;;;;;;;5123273;28;20084;-60
2024/04/03 09:08:03;;;;;;;13.40;5.50;;;;;;;;;;5135118;28;20293;-60
2024/04/03 09:10:32;;;;;;;9.60;5.53;;;;;;;;;;5137434;28;20327;-59
2024/04/03 09:13:08;;;;;;;14.17;5.93;;;;;;;;;;5136692;28;20267;-59
2024/04/03 09:15:34;;;;;;;11.83;5.10;;;;;;;;;;5136820;28;20279;-61
2024/04/03 09:18:03;;;;;;;9.02;5.13;;;;;;;;;;5137205;28;20291;-59
2024/04/03 09:20:29;;;;;;;13.13;4.93;;;;;;;;;;5137354;28;20069;-60
2024/04/03 09:22:56;;;;;;;10.52;5.18;;;;;;;;;;5134229;27;20265;-61
2024/04/03 09:25:28;;;;;;;11.25;5.93;;;;;;;;;;5124800;28;20062;-60
2024/04/03 09:27:57;;;;;;;10.13;5.80;;;;;;;;;;5134853;28;20107;-60
2024/04/03 09:30:24;;;;;;;14.17;5.40;;;;;;;;;;5136183;28;20291;-60
2024/04/03 09:32:49;;;;;;;;;;;;;;;;;;5137194;28;20390;-59
2024/04/03 09:35:16;;;;;;;15.73;6.00;;;;;;;;;;5129002;28;19912;-60
2024/04/03 09:37:41;;;;;;;;;;;;;;;;;;5134615;28;20563;-60
2024/04/03 09:40:06;;;;;;;19.70;6.40;;;;;;;;;;5125941;28;19908;-60
2024/04/03 09:42:32;;;;;;;8.85;5.80;;;;;;;;;;5130540;28;20038;-60
2024/04/03 09:45:06;;;;;;;9.40;5.87;;;;;;;;;;5121960;28;20024;-60
2024/04/03 09:47:33;;;;;;;12.17;6.27;;;;;;;;;;5135693;28;20035;-59
2024/04/03 09:50:00;;;;;;;9.23;5.22;;;;;;;;;;5112930;28;20328;-59
2024/04/03 09:52:26;;;;;;;12.93;6.00;;;;;;;;;;5133377;28;20031;-60
2024/04/03 09:54:52;;;;;;;12.70;5.15;;;;;;;;;;5119535;28;20284;-59
2024/04/03 09:57:18;;;;;;;9.32;5.60;;;;;;;;;;5132748;28;20036;-59
2024/04/03 09:59:47;;;;;;;12.98;5.78;;;;;;;;;;5130845;28;20028;-59
2024/04/03 10:02:14;;;;;;;9.33;5.67;;;;;;;;;;5123784;28;20059;-59
2024/04/03 10:04:41;;;;;;;13.27;5.40;;;;;;;;;;5134733;28;20259;-58
2024/04/03 10:07:20;;;;;;;11.97;5.57;;;;;;;;;;5135034;28;20274;-59
2024/04/03 10:09:51;;;;;;;9.33;4.67;;;;;;;;;;5133822;28;20279;-57
2024/04/03 10:12:19;;;;;;;8.20;4.40;;;;;;;;;;5136024;28;20259;-57
2024/04/03 10:14:44;;;;;;;13.33;4.37;;;;;;;;;;5125731;28;20371;-59
2024/04/03 10:17:16;;;;;;;7.87;4.03;;;;;;;;;;5127326;28;20276;-59
2024/04/03 10:19:42;;;;;;;6.97;3.13;;;;;;;;;;5132423;28;20070;-59
2024/04/03 10:22:10;;;;;;;6.22;3.30;;;;;;;;;;5135819;28;20289;-59
2024/04/03 10:24:37;;;;;;;5.63;3.40;;;;;;;;;;5124695;28;20111;-56
2024/04/03 10:27:02;;;;;;;5.78;3.45;;;;;;;;;;5133169;28;20309;-58
2024/04/03 10:29:28;;;;;;;7.05;3.75;;;;;;;;;;5135223;28;20024;-59
2024/04/03 10:31:53;;;;;;;7.67;3.50;;;;;;;;;;5135428;28;20023;-58
2024/04/03 10:34:19;;;;;;;8.20;3.30;;;;;;;;;;5127915;28;20479;-59
2024/04/03 10:36:48;;;;;;;5.45;2.88;;;;;;;;;;5116705;28;20027;-59
2024/04/03 10:39:13;;;;;;;4.90;2.67;;;;;;;;;;5126407;28;20024;-57
2024/04/03 10:41:39;;;;;;;7.30;3.45;;;;;;;;;;5130680;28;20293;-59
2024/04/03 10:44:05;;;;;;;4.20;2.20;;;;;;;;;;5123987;28;20066;-59
2024/04/03 10:46:30;;;;;;;8.90;2.65;;;;;;;;;;5105615;28;20035;-59
2024/04/03 10:48:56;;;;;;;3.70;2.40;;;;;;;;;;5125293;28;20083;-59
2024/04/03 10:51:21;;;;;;;4.43;2.13;;;;;;;;;;5135385;28;20035;-59
2024/04/03 10:53:48;;;;;;;3.55;2.42;;;;;;;;;;5132101;28;20041;-59
2024/04/03 10:56:16;;;;;;;5.83;2.80;;;;;;;;;;5126904;28;20040;-58
2024/04/03 10:58:44;;;;;;;6.50;2.53;;;;;;;;;;5134845;28;20023;-57
2024/04/03 11:01:10;;;;;;;5.40;2.30;;;;;;;;;;5131679;28;20095;-57
2024/04/03 11:03:38;;;;;;;6.27;1.90;;;;;;;;;;5132679;28;20024;-58
2024/04/03 11:06:04;;;;;;;3.77;2.10;;;;;;;;;;5132903;28;20046;-57
2024/04/03 11:08:29;;;;;;;4.90;2.50;;;;;;;;;;5123067;28;20027;-58
2024/04/03 11:11:04;;;;;;;5.67;2.60;;;;;;;;;;5135076;28;20267;-58
2024/04/03 11:13:30;;;;;;;4.63;2.67;;;;;;;;;;5134724;28;20027;-58
2024/04/03 11:15:56;;;;;;;6.00;2.30;;;;;;;;;;5132218;28;20322;-57
2024/04/03 11:18:21;;;;;;;4.50;2.80;;;;;;;;;;5133176;28;20027;-58
2024/04/03 11:20:48;;;;;;;5.47;2.80;;;;;;;;;;5132640;28;20051;-58
2024/04/03 11:23:13;;;;;;;5.27;2.70;;;;;;;;;;5128598;28;20034;-59
2024/04/03 11:25:39;;;;;;;4.63;3.30;;;;;;;;;;5129445;28;20271;-58
2024/04/03 11:28:05;;;;;;;5.27;3.50;;;;;;;;;;5132124;28;20039;-59
2024/04/03 11:30:30;;;;;;;6.50;3.10;;;;;;;;;;5134756;28;20035;-59
2024/04/03 11:32:59;;;;;;;8.93;3.43;;;;;;;;;;5134793;28;20031;-59
2024/04/03 11:35:25;;;;;;;4.63;2.95;;;;;;;;;;5126302;28;20284;-59
2024/04/03 11:37:50;;;;;;;5.18;3.05;;;;;;;;;;5134508;28;20066;-59
2024/04/03 11:40:15;;;;;;;6.03;3.10;;;;;;;;;;5128302;28;20027;-59
2024/04/03 11:42:41;;;;;;;4.10;2.43;;;;;;;;;;5132596;28;20256;-58
2024/04/03 11:45:07;;;;;;;5.15;2.80;;;;;;;;;;5126356;28;20035;-59
2024/04/03 11:47:33;;;;;;;4.28;2.22;;;;;;;;;;5134037;28;20031;-59
2024/04/03 11:50:02;;;;;;;5.85;2.83;;;;;;;;;;5133180;28;20028;-57
2024/04/03 11:52:27;;;;;;;5.40;1.97;;;;;;;;;;5111989;28;20031;-56
2024/04/03 11:54:53;;;;;;;3.70;1.57;;;;;;;;;;5128971;28;20313;-58
2024/04/03 11:57:19;;;;;;;3.67;2.17;;;;;;;;;;5134066;28;20039;-60
2024/04/03 11:59:44;;;;;;;2.07;1.63;;;;;;;;;;5134542;28;20268;-56
2024/04/03 12:02:09;;;;;;;16.60;2.13;;;;;;;;;;5134576;28;20031;-57
2024/04/03 12:04:35;;;;;;;7.30;2.47;;;;;;;;;;5131888;28;20110;-58
2024/04/03 12:07:01;;;;;;;4.65;1.85;;;;;;;;;;5132133;28;20060;-57
2024/04/03 12:09:27;;;;;;;5.50;1.80;;;;;;;;;;5132192;28;20035;-58
2024/04/03 12:11:52;;;;;;;2.35;1.35;;;;;;;;;;5134199;28;20027;-57
2024/04/03 12:14:18;;;;;;;2.05;1.40;;;;;;;;;;5133633;28;20091;-57
2024/04/03 12:16:44;;;;;;;2.90;1.70;;;;;;;;;;5133392;28;20114;-59
2024/04/03 12:19:33;;;;;;;4.30;2.00;;;;;;;;;;5134819;28;20062;-60
2024/04/03 12:21:59;;;;;;;2.87;2.00;;;;;;;;;;5123360;28;20048;-56
2024/04/03 12:24:24;;;;;;;3.65;2.20;;;;;;;;;;5109764;28;20300;-58
2024/04/03 12:26:49;;;;;;;3.27;2.30;;;;;;;;;;5126548;28;20092;-57
2024/04/03 12:29:18;;;;;;;3.03;2.40;;;;;;;;;;5129274;28;20263;-55
2024/04/03 12:31:45;;;;;;;4.57;2.40;;;;;;;;;;5105877;28;20065;-58
2024/04/03 12:34:11;;;;;;;5.73;2.53;;;;;;;;;;5134219;28;20274;-58
2024/04/03 12:36:36;;;;;;;3.60;2.45;;;;;;;;;;5126313;28;20279;-58
2024/04/03 12:39:03;;;;;;;3.15;2.33;;;;;;;;;;5133751;28;20032;-58
2024/04/03 12:41:29;;;;;;;4.23;2.93;;;;;;;;;;5130591;28;20027;-58
2024/04/03 12:43:55;;;;;;;4.13;2.63;;;;;;;;;;5136593;28;20279;-57
2024/04/03 12:46:21;;;;;;;5.80;2.57;;;;;;;;;;5119965;28;20058;-58
2024/04/03 12:48:46;;;;;;;4.35;2.83;;;;;;;;;;5133620;28;20319;-58
2024/04/03 12:51:12;;;;;;;5.60;2.92;;;;;;;;;;5137842;28;20072;-58
2024/04/03 12:53:37;;;;;;;3.40;2.40;;;;;;;;;;5137804;28;20064;-59
2024/04/03 12:56:03;;;;;;;5.30;3.60;;;;;;;;;;5129432;28;20051;-56
2024/04/03 12:58:29;;;;;;;3.67;2.50;;;;;;;;;;5132714;28;20020;-56
2024/04/03 13:00:54;;;;;;;3.43;2.57;;;;;;;;;;5137157;28;20058;-58
2024/04/03 13:03:20;;;;;;;4.07;3.08;;;;;;;;;;5137595;28;20035;-58
2024/04/03 13:05:49;;;;;;;3.85;2.80;;;;;;;;;;5124730;28;20158;-57
2024/04/03 13:08:15;;;;;;;3.73;2.73;;;;;;;;;;5136422;28;20035;-58
2024/04/03 13:10:40;;;;;;;5.55;2.95;;;;;;;;;;5132717;28;20031;-58
2024/04/03 13:13:06;;;;;;;5.03;2.83;;;;;;;;;;5137255;28;20035;-58
2024/04/03 13:15:31;;;;;;;6.17;4.17;;;;;;;;;;5127458;28;20024;-59
2024/04/03 13:17:57;;;;;;;5.60;2.93;;;;;;;;;;5128802;28;20134;-58
2024/04/03 13:20:22;;;;;;;4.78;3.35;;;;;;;;;;5136634;28;20024;-59
2024/04/03 13:22:48;;;;;;;5.15;3.08;;;;;;;;;;5137167;28;20061;-59
2024/04/03 13:25:16;;;;;;;5.30;2.92;;;;;;;;;;5129550;28;20041;-53
2024/04/03 13:27:42;;;;;;;4.73;3.53;;;;;;;;;;5127329;28;20054;-58
2024/04/03 13:30:07;;;;;;;9.23;5.82;;;;;;;;;;5119096;28;20015;-57
2024/04/03 13:32:33;;;;;;;4.57;3.40;;;;;;;;;;5126760;28;20036;-56
2024/04/03 13:34:59;;;;;;;5.03;3.63;;;;;;;;;;5115561;28;20027;-59
2024/04/03 13:37:24;;;;;;;4.38;3.28;;;;;;;;;;5132846;28;20051;-60
2024/04/03 13:39:50;;;;;;;5.30;2.87;;;;;;;;;;5133391;28;20031;-59
2024/04/03 13:42:17;;;;;;;2.97;2.10;;;;;;;;;;5135918;28;20016;-58
2024/04/03 13:44:42;;;;;;;3.00;2.10;;;;;;;;;;5134856;28;20073;-60
2024/04/03 13:47:08;;;;;;;3.38;1.50;;;;;;;;;;5136173;28;20015;-59
2024/04/03 13:49:33;;;;;;;3.13;2.00;;;;;;;;;;5135926;28;20035;-60
2024/04/03 13:51:59;;;;;;;;;;;;;;;;;;5137001;28;20036;-59
2024/04/03 13:54:24;;;;;;;2.43;1.83;;;;;;;;;;5130358;28;19911;-59
2024/04/03 13:56:50;;;;;;;;;;;;;;;;;;5134693;28;20034;-60
2024/04/03 13:59:15;;;;;;;7.77;2.20;;;;;;;;;;5134712;28;19918;-60
2024/04/03 14:01:41;;;;;;;4.40;2.25;;;;;;;;;;5135546;28;20032;-59
2024/04/03 14:04:06;;;;;;;4.93;2.65;;;;;;;;;;5126777;28;20044;-59
2024/04/03 14:06:32;;;;;;;5.50;2.40;;;;;;;;;;5128080;28;20024;-60
2024/04/03 14:08:57;;;;;;;6.15;2.22;;;;;;;;;;5132444;28;20034;-60
2024/04/03 14:11:23;;;;;;;5.35;2.65;;;;;;;;;;5129838;28;20035;-60
2024/04/03 14:13:50;;;;;;;4.20;2.20;;;;;;;;;;5129567;28;20032;-58
2024/04/03 14:16:16;;;;;;;3.47;1.90;;;;;;;;;;5127333;28;20035;-60
2024/04/03 14:18:41;;;;;;;5.05;2.17;;;;;;;;;;5135213;28;20042;-60
2024/04/03 14:21:07;;;;;;;3.85;2.20;;;;;;;;;;5134170;28;20035;-59
2024/04/03 14:23:33;;;;;;;4.20;1.93;;;;;;;;;;5134645;28;20059;-58
2024/04/03 14:25:59;;;;;;;;;;;;;;;;;;5124776;28;20030;-59
2024/04/03 14:28:24;;;;;;;5.57;2.33;;;;;;;;;;5131695;28;19911;-60
2024/04/03 14:30:50;;;;;;;5.07;2.27;;;;;;;;;;5135635;28;20024;-59